sensor_id;sensor_type;location;lat;lon;timestamp;P1;durP1;ratioP1;P2;durP2;ratioP2
11614;SDS011;5863;52.832;4.758;2023-11-21T00:02:13;7.28;;;2.67;;
11614;SDS011;5863;52.832;4.758;2023-11-21T00:04:39;5.55;;;2.97;;
11614;SDS011;5863;52.832;4.758;2023-11-21T00:07:06;14.18;;;3.17;;
11614;SDS011;5863;52.832;4.758;2023-11-21T00:09:32;7.05;;;2.50;;
11614;SDS011;5863;52.832;4.758;2023-11-21T00:12:00;4.45;;;2.22;;
11614;SDS011;5863;52.832;4.758;2023-11-21T00:14:27;7.18;;;2.35;;
11614;SDS011;5863;52.832;4.758;2023-11-21T00:16:54;8.60;;;2.03;;
11614;SDS011;5863;52.832;4.758;2023-11-21T00:19:22;8.95;;;1.92;;
11614;SDS011;5863;52.832;4.758;2023-11-21T00:21:48;4.28;;;1.30;;
11614;SDS011;5863;52.832;4.758;2023-11-21T00:24:15;2.90;;;1.45;;
11614;SDS011;5863;52.832;4.758;2023-11-21T00:26:42;4.72;;;1.08;;
11614;SDS011;5863;52.832;4.758;2023-11-21T00:29:09;2.17;;;1.17;;
11614;SDS011;5863;52.832;4.758;2023-11-21T00:31:36;4.57;;;1.92;;
11614;SDS011;5863;52.832;4.758;2023-11-21T00:34:03;3.85;;;0.80;;
11614;SDS011;5863;52.832;4.758;2023-11-21T00:36:32;3.47;;;1.08;;
11614;SDS011;5863;52.832;4.758;2023-11-21T00:38:58;3.60;;;0.82;;
11614;SDS011;5863;52.832;4.758;2023-11-21T00:41:25;4.50;;;1.15;;
11614;SDS011;5863;52.832;4.758;2023-11-21T00:43:53;4.28;;;1.10;;
11614;SDS011;5863;52.832;4.758;2023-11-21T00:46:20;2.75;;;1.00;;
11614;SDS011;5863;52.832;4.758;2023-11-21T00:48:46;1.60;;;0.80;;
11614;SDS011;5863;52.832;4.758;2023-11-21T00:51:13;2.58;;;0.70;;
11614;SDS011;5863;52.832;4.758;2023-11-21T00:53:41;2.78;;;0.75;;
11614;SDS011;5863;52.832;4.758;2023-11-21T00:56:08;3.42;;;1.10;;
11614;SDS011;5863;52.832;4.758;2023-11-21T00:58:34;1.67;;;0.60;;
11614;SDS011;5863;52.832;4.758;2023-11-21T01:01:01;2.22;;;0.70;;
11614;SDS011;5863;52.832;4.758;2023-11-21T01:03:28;2.53;;;0.63;;
11614;SDS011;5863;52.832;4.758;2023-11-21T01:05:55;1.10;;;0.32;;
11614;SDS011;5863;52.832;4.758;2023-11-21T01:08:22;2.20;;;0.70;;
11614;SDS011;5863;52.832;4.758;2023-11-21T01:10:50;1.17;;;0.70;;
11614;SDS011;5863;52.832;4.758;2023-11-21T01:13:17;3.15;;;0.70;;
11614;SDS011;5863;52.832;4.758;2023-11-21T01:15:44;2.47;;;0.60;;
11614;SDS011;5863;52.832;4.758;2023-11-21T01:18:11;5.10;;;1.08;;
11614;SDS011;5863;52.832;4.758;2023-11-21T01:20:38;1.77;;;0.88;;
11614;SDS011;5863;52.832;4.758;2023-11-21T01:23:05;2.33;;;0.80;;
11614;SDS011;5863;52.832;4.758;2023-11-21T01:25:31;0.95;;;0.73;;
11614;SDS011;5863;52.832;4.758;2023-11-21T01:27:59;1.83;;;0.80;;
11614;SDS011;5863;52.832;4.758;2023-11-21T01:30:26;3.17;;;0.70;;
11614;SDS011;5863;52.832;4.758;2023-11-21T01:32:53;1.52;;;0.70;;
11614;SDS011;5863;52.832;4.758;2023-11-21T01:35:19;1.25;;;0.50;;
11614;SDS011;5863;52.832;4.758;2023-11-21T01:37:46;2.80;;;0.55;;
11614;SDS011;5863;52.832;4.758;2023-11-21T01:40:13;1.55;;;0.50;;
11614;SDS011;5863;52.832;4.758;2023-11-21T01:42:40;0.35;;;0.30;;
11614;SDS011;5863;52.832;4.758;2023-11-21T01:45:10;1.55;;;0.50;;
11614;SDS011;5863;52.832;4.758;2023-11-21T01:47:37;2.38;;;0.50;;
11614;SDS011;5863;52.832;4.758;2023-11-21T01:50:05;1.65;;;0.60;;
11614;SDS011;5863;52.832;4.758;2023-11-21T01:52:33;0.65;;;0.30;;
11614;SDS011;5863;52.832;4.758;2023-11-21T01:55:01;2.53;;;0.80;;
11614;SDS011;5863;52.832;4.758;2023-11-21T01:57:29;0.95;;;0.50;;
11614;SDS011;5863;52.832;4.758;2023-11-21T01:59:56;2.08;;;1.48;;
11614;SDS011;5863;52.832;4.758;2023-11-21T02:02:26;1.33;;;0.85;;
11614;SDS011;5863;52.832;4.758;2023-11-21T02:04:52;3.17;;;0.77;;
11614;SDS011;5863;52.832;4.758;2023-11-21T02:07:19;0.68;;;0.43;;
11614;SDS011;5863;52.832;4.758;2023-11-21T02:09:48;1.15;;;0.73;;
11614;SDS011;5863;52.832;4.758;2023-11-21T02:12:15;3.28;;;0.98;;
11614;SDS011;5863;52.832;4.758;2023-11-21T02:14:42;2.53;;;0.82;;
11614;SDS011;5863;52.832;4.758;2023-11-21T02:17:09;1.67;;;1.00;;
11614;SDS011;5863;52.832;4.758;2023-11-21T02:19:39;2.75;;;0.70;;
11614;SDS011;5863;52.832;4.758;2023-11-21T02:22:06;2.30;;;0.80;;
11614;SDS011;5863;52.832;4.758;2023-11-21T02:24:34;2.55;;;0.70;;
11614;SDS011;5863;52.832;4.758;2023-11-21T02:27:01;3.38;;;1.05;;
11614;SDS011;5863;52.832;4.758;2023-11-21T02:29:28;3.88;;;0.98;;
11614;SDS011;5863;52.832;4.758;2023-11-21T02:31:55;2.42;;;1.02;;
11614;SDS011;5863;52.832;4.758;2023-11-21T02:34:22;7.82;;;1.45;;
11614;SDS011;5863;52.832;4.758;2023-11-21T02:36:49;2.63;;;0.70;;
11614;SDS011;5863;52.832;4.758;2023-11-21T02:39:16;1.73;;;0.73;;
11614;SDS011;5863;52.832;4.758;2023-11-21T02:41:48;2.17;;;0.98;;
11614;SDS011;5863;52.832;4.758;2023-11-21T02:44:15;5.20;;;0.93;;
11614;SDS011;5863;52.832;4.758;2023-11-21T02:46:41;3.42;;;0.95;;
11614;SDS011;5863;52.832;4.758;2023-11-21T02:49:08;3.35;;;1.00;;
11614;SDS011;5863;52.832;4.758;2023-11-21T02:51:35;3.55;;;1.08;;
11614;SDS011;5863;52.832;4.758;2023-11-21T02:54:03;2.20;;;0.85;;
11614;SDS011;5863;52.832;4.758;2023-11-21T02:56:31;5.10;;;1.05;;
11614;SDS011;5863;52.832;4.758;2023-11-21T02:58:59;2.80;;;0.93;;
11614;SDS011;5863;52.832;4.758;2023-11-21T03:01:26;1.88;;;1.05;;
11614;SDS011;5863;52.832;4.758;2023-11-21T03:03:53;3.90;;;1.30;;
11614;SDS011;5863;52.832;4.758;2023-11-21T03:06:21;3.85;;;1.55;;
11614;SDS011;5863;52.832;4.758;2023-11-21T03:08:48;2.92;;;1.45;;
11614;SDS011;5863;52.832;4.758;2023-11-21T03:11:15;5.38;;;1.35;;
11614;SDS011;5863;52.832;4.758;2023-11-21T03:13:42;4.07;;;1.73;;
11614;SDS011;5863;52.832;4.758;2023-11-21T03:16:11;12.27;;;2.45;;
11614;SDS011;5863;52.832;4.758;2023-11-21T03:18:38;10.63;;;2.08;;
11614;SDS011;5863;52.832;4.758;2023-11-21T03:21:05;6.75;;;1.80;;
11614;SDS011;5863;52.832;4.758;2023-11-21T03:23:33;6.35;;;2.10;;
11614;SDS011;5863;52.832;4.758;2023-11-21T03:26:00;8.65;;;2.35;;
11614;SDS011;5863;52.832;4.758;2023-11-21T03:28:27;10.20;;;2.50;;
11614;SDS011;5863;52.832;4.758;2023-11-21T03:30:55;8.52;;;2.90;;
11614;SDS011;5863;52.832;4.758;2023-11-21T03:33:23;7.43;;;2.60;;
11614;SDS011;5863;52.832;4.758;2023-11-21T03:35:50;9.13;;;2.75;;
11614;SDS011;5863;52.832;4.758;2023-11-21T03:38:17;8.95;;;2.90;;
11614;SDS011;5863;52.832;4.758;2023-11-21T03:40:45;5.68;;;2.83;;
11614;SDS011;5863;52.832;4.758;2023-11-21T03:43:12;8.18;;;2.92;;
11614;SDS011;5863;52.832;4.758;2023-11-21T03:45:39;9.43;;;2.70;;
11614;SDS011;5863;52.832;4.758;2023-11-21T03:48:05;9.05;;;2.88;;
11614;SDS011;5863;52.832;4.758;2023-11-21T03:50:34;7.25;;;2.80;;
11614;SDS011;5863;52.832;4.758;2023-11-21T03:53:00;7.13;;;2.58;;
11614;SDS011;5863;52.832;4.758;2023-11-21T03:55:27;5.10;;;2.58;;
11614;SDS011;5863;52.832;4.758;2023-11-21T03:57:56;7.18;;;2.90;;
11614;SDS011;5863;52.832;4.758;2023-11-21T04:00:22;9.32;;;3.00;;
11614;SDS011;5863;52.832;4.758;2023-11-21T04:02:50;10.77;;;3.40;;
11614;SDS011;5863;52.832;4.758;2023-11-21T04:05:17;11.40;;;3.35;;
11614;SDS011;5863;52.832;4.758;2023-11-21T04:07:47;11.45;;;2.90;;
11614;SDS011;5863;52.832;4.758;2023-11-21T04:10:14;10.27;;;2.85;;
11614;SDS011;5863;52.832;4.758;2023-11-21T04:12:40;7.78;;;2.85;;
11614;SDS011;5863;52.832;4.758;2023-11-21T04:15:08;11.95;;;3.05;;
11614;SDS011;5863;52.832;4.758;2023-11-21T04:17:35;8.40;;;2.85;;
11614;SDS011;5863;52.832;4.758;2023-11-21T04:20:02;6.05;;;2.80;;
11614;SDS011;5863;52.832;4.758;2023-11-21T04:22:33;7.38;;;2.72;;
11614;SDS011;5863;52.832;4.758;2023-11-21T04:25:03;12.63;;;2.85;;
11614;SDS011;5863;52.832;4.758;2023-11-21T04:27:30;7.70;;;3.65;;
11614;SDS011;5863;52.832;4.758;2023-11-21T04:29:57;14.02;;;3.63;;
11614;SDS011;5863;52.832;4.758;2023-11-21T04:32:23;8.18;;;2.50;;
11614;SDS011;5863;52.832;4.758;2023-11-21T04:34:50;9.70;;;2.80;;
11614;SDS011;5863;52.832;4.758;2023-11-21T04:37:17;5.35;;;2.63;;
11614;SDS011;5863;52.832;4.758;2023-11-21T04:39:43;9.60;;;2.70;;
11614;SDS011;5863;52.832;4.758;2023-11-21T04:42:11;11.02;;;2.95;;
11614;SDS011;5863;52.832;4.758;2023-11-21T04:44:38;11.63;;;2.90;;
11614;SDS011;5863;52.832;4.758;2023-11-21T04:47:06;5.50;;;2.35;;
11614;SDS011;5863;52.832;4.758;2023-11-21T04:49:33;10.32;;;2.53;;
11614;SDS011;5863;52.832;4.758;2023-11-21T04:51:59;9.60;;;2.10;;
11614;SDS011;5863;52.832;4.758;2023-11-21T04:54:27;7.65;;;2.33;;
11614;SDS011;5863;52.832;4.758;2023-11-21T04:56:53;7.32;;;2.00;;
11614;SDS011;5863;52.832;4.758;2023-11-21T04:59:21;6.90;;;1.95;;
11614;SDS011;5863;52.832;4.758;2023-11-21T05:01:49;8.40;;;2.20;;
11614;SDS011;5863;52.832;4.758;2023-11-21T05:04:16;7.53;;;2.40;;
11614;SDS011;5863;52.832;4.758;2023-11-21T05:06:43;10.30;;;2.28;;
11614;SDS011;5863;52.832;4.758;2023-11-21T05:09:09;7.15;;;2.08;;
11614;SDS011;5863;52.832;4.758;2023-11-21T05:11:37;9.93;;;3.28;;
11614;SDS011;5863;52.832;4.758;2023-11-21T05:14:04;10.57;;;2.90;;
11614;SDS011;5863;52.832;4.758;2023-11-21T05:16:33;11.57;;;3.05;;
11614;SDS011;5863;52.832;4.758;2023-11-21T05:19:00;7.05;;;2.15;;
11614;SDS011;5863;52.832;4.758;2023-11-21T05:21:27;9.95;;;2.60;;
11614;SDS011;5863;52.832;4.758;2023-11-21T05:23:54;7.07;;;2.67;;
11614;SDS011;5863;52.832;4.758;2023-11-21T05:26:21;11.68;;;2.38;;
11614;SDS011;5863;52.832;4.758;2023-11-21T05:28:47;9.68;;;2.33;;
11614;SDS011;5863;52.832;4.758;2023-11-21T05:31:15;7.20;;;2.22;;
11614;SDS011;5863;52.832;4.758;2023-11-21T05:33:43;8.48;;;2.22;;
11614;SDS011;5863;52.832;4.758;2023-11-21T05:36:10;5.32;;;1.92;;
11614;SDS011;5863;52.832;4.758;2023-11-21T05:38:36;4.43;;;1.65;;
11614;SDS011;5863;52.832;4.758;2023-11-21T05:41:03;4.10;;;2.22;;
11614;SDS011;5863;52.832;4.758;2023-11-21T05:43:30;5.10;;;1.80;;
11614;SDS011;5863;52.832;4.758;2023-11-21T05:45:57;5.47;;;2.17;;
11614;SDS011;5863;52.832;4.758;2023-11-21T05:48:25;9.52;;;2.40;;
11614;SDS011;5863;52.832;4.758;2023-11-21T05:50:53;8.73;;;2.35;;
11614;SDS011;5863;52.832;4.758;2023-11-21T05:53:19;9.90;;;2.42;;
11614;SDS011;5863;52.832;4.758;2023-11-21T05:55:46;5.88;;;2.35;;
11614;SDS011;5863;52.832;4.758;2023-11-21T05:58:13;4.15;;;2.65;;
11614;SDS011;5863;52.832;4.758;2023-11-21T06:00:40;9.38;;;2.92;;
11614;SDS011;5863;52.832;4.758;2023-11-21T06:03:07;5.15;;;2.70;;
11614;SDS011;5863;52.832;4.758;2023-11-21T06:05:33;7.95;;;2.83;;
11614;SDS011;5863;52.832;4.758;2023-11-21T06:08:01;10.05;;;3.22;;
11614;SDS011;5863;52.832;4.758;2023-11-21T06:10:28;7.85;;;3.15;;
11614;SDS011;5863;52.832;4.758;2023-11-21T06:12:55;8.95;;;3.25;;
11614;SDS011;5863;52.832;4.758;2023-11-21T06:15:22;8.10;;;3.00;;
11614;SDS011;5863;52.832;4.758;2023-11-21T06:17:49;8.00;;;3.05;;
11614;SDS011;5863;52.832;4.758;2023-11-21T06:20:18;9.38;;;3.17;;
11614;SDS011;5863;52.832;4.758;2023-11-21T06:22:45;9.43;;;3.28;;
11614;SDS011;5863;52.832;4.758;2023-11-21T06:25:14;13.10;;;3.03;;
11614;SDS011;5863;52.832;4.758;2023-11-21T06:27:42;13.20;;;3.40;;
11614;SDS011;5863;52.832;4.758;2023-11-21T06:30:10;9.90;;;3.30;;
11614;SDS011;5863;52.832;4.758;2023-11-21T06:32:38;7.32;;;2.78;;
11614;SDS011;5863;52.832;4.758;2023-11-21T06:35:06;7.35;;;2.80;;
11614;SDS011;5863;52.832;4.758;2023-11-21T06:37:35;4.05;;;2.17;;
11614;SDS011;5863;52.832;4.758;2023-11-21T06:40:01;5.07;;;2.60;;
11614;SDS011;5863;52.832;4.758;2023-11-21T06:42:31;3.88;;;2.60;;
11614;SDS011;5863;52.832;4.758;2023-11-21T06:44:58;6.45;;;3.33;;
11614;SDS011;5863;52.832;4.758;2023-11-21T06:47:28;5.10;;;3.42;;
11614;SDS011;5863;52.832;4.758;2023-11-21T06:49:55;5.32;;;3.22;;
11614;SDS011;5863;52.832;4.758;2023-11-21T06:52:22;10.73;;;3.85;;
11614;SDS011;5863;52.832;4.758;2023-11-21T06:54:49;7.40;;;4.13;;
11614;SDS011;5863;52.832;4.758;2023-11-21T06:57:16;9.25;;;4.20;;
11614;SDS011;5863;52.832;4.758;2023-11-21T06:59:44;8.68;;;4.63;;
11614;SDS011;5863;52.832;4.758;2023-11-21T07:02:11;6.63;;;4.07;;
11614;SDS011;5863;52.832;4.758;2023-11-21T07:04:37;7.95;;;4.45;;
11614;SDS011;5863;52.832;4.758;2023-11-21T07:07:04;10.77;;;4.75;;
11614;SDS011;5863;52.832;4.758;2023-11-21T07:09:32;12.23;;;5.30;;
11614;SDS011;5863;52.832;4.758;2023-11-21T07:12:00;12.52;;;5.70;;
11614;SDS011;5863;52.832;4.758;2023-11-21T07:14:26;7.57;;;4.38;;
11614;SDS011;5863;52.832;4.758;2023-11-21T07:16:54;10.90;;;4.68;;
11614;SDS011;5863;52.832;4.758;2023-11-21T07:19:21;12.48;;;4.68;;
11614;SDS011;5863;52.832;4.758;2023-11-21T07:21:48;10.07;;;4.72;;
11614;SDS011;5863;52.832;4.758;2023-11-21T07:24:16;9.10;;;4.25;;
11614;SDS011;5863;52.832;4.758;2023-11-21T07:26:43;8.52;;;4.72;;
11614;SDS011;5863;52.832;4.758;2023-11-21T07:29:10;9.85;;;4.10;;
11614;SDS011;5863;52.832;4.758;2023-11-21T07:31:38;7.03;;;4.13;;
11614;SDS011;5863;52.832;4.758;2023-11-21T07:34:07;10.77;;;4.30;;
11614;SDS011;5863;52.832;4.758;2023-11-21T07:36:34;9.65;;;3.97;;
11614;SDS011;5863;52.832;4.758;2023-11-21T07:39:00;9.93;;;3.78;;
11614;SDS011;5863;52.832;4.758;2023-11-21T07:41:28;6.35;;;3.38;;
11614;SDS011;5863;52.832;4.758;2023-11-21T07:43:55;6.93;;;3.33;;
11614;SDS011;5863;52.832;4.758;2023-11-21T07:46:21;9.90;;;3.75;;
11614;SDS011;5863;52.832;4.758;2023-11-21T07:48:49;11.48;;;3.70;;
11614;SDS011;5863;52.832;4.758;2023-11-21T07:51:18;10.68;;;4.07;;
11614;SDS011;5863;52.832;4.758;2023-11-21T07:53:45;10.20;;;4.60;;
11614;SDS011;5863;52.832;4.758;2023-11-21T07:56:12;7.43;;;4.10;;
11614;SDS011;5863;52.832;4.758;2023-11-21T07:58:38;7.50;;;3.65;;
11614;SDS011;5863;52.832;4.758;2023-11-21T08:01:05;10.93;;;3.97;;
11614;SDS011;5863;52.832;4.758;2023-11-21T08:03:33;7.72;;;4.03;;
11614;SDS011;5863;52.832;4.758;2023-11-21T08:05:59;8.13;;;3.75;;
11614;SDS011;5863;52.832;4.758;2023-11-21T08:08:29;10.48;;;3.33;;
11614;SDS011;5863;52.832;4.758;2023-11-21T08:10:57;8.02;;;3.28;;
11614;SDS011;5863;52.832;4.758;2023-11-21T08:13:23;5.82;;;3.45;;
11614;SDS011;5863;52.832;4.758;2023-11-21T08:15:53;5.63;;;3.22;;
11614;SDS011;5863;52.832;4.758;2023-11-21T08:18:20;7.65;;;3.83;;
11614;SDS011;5863;52.832;4.758;2023-11-21T08:20:47;9.95;;;3.55;;
11614;SDS011;5863;52.832;4.758;2023-11-21T08:23:14;7.53;;;3.90;;
11614;SDS011;5863;52.832;4.758;2023-11-21T08:25:43;5.93;;;3.40;;
11614;SDS011;5863;52.832;4.758;2023-11-21T08:28:10;6.43;;;3.92;;
11614;SDS011;5863;52.832;4.758;2023-11-21T08:30:37;7.20;;;3.90;;
11614;SDS011;5863;52.832;4.758;2023-11-21T08:33:04;10.32;;;4.40;;
11614;SDS011;5863;52.832;4.758;2023-11-21T08:35:31;12.75;;;4.90;;
11614;SDS011;5863;52.832;4.758;2023-11-21T08:37:57;9.00;;;5.20;;
11614;SDS011;5863;52.832;4.758;2023-11-21T08:40:24;7.47;;;4.60;;
11614;SDS011;5863;52.832;4.758;2023-11-21T08:42:52;7.75;;;4.80;;
11614;SDS011;5863;52.832;4.758;2023-11-21T08:45:19;10.82;;;5.60;;
11614;SDS011;5863;52.832;4.758;2023-11-21T08:47:47;10.45;;;5.43;;
11614;SDS011;5863;52.832;4.758;2023-11-21T08:50:13;9.35;;;5.70;;
11614;SDS011;5863;52.832;4.758;2023-11-21T08:52:40;10.07;;;6.03;;
11614;SDS011;5863;52.832;4.758;2023-11-21T08:55:07;9.77;;;5.60;;
11614;SDS011;5863;52.832;4.758;2023-11-21T08:57:37;9.70;;;5.22;;
11614;SDS011;5863;52.832;4.758;2023-11-21T09:00:07;9.88;;;5.60;;
11614;SDS011;5863;52.832;4.758;2023-11-21T09:02:36;8.55;;;5.40;;
11614;SDS011;5863;52.832;4.758;2023-11-21T09:05:04;7.28;;;4.97;;
11614;SDS011;5863;52.832;4.758;2023-11-21T09:07:32;9.70;;;5.65;;
11614;SDS011;5863;52.832;4.758;2023-11-21T09:09:58;11.02;;;5.65;;
11614;SDS011;5863;52.832;4.758;2023-11-21T09:12:25;8.60;;;5.53;;
11614;SDS011;5863;52.832;4.758;2023-11-21T09:14:52;9.07;;;5.57;;
11614;SDS011;5863;52.832;4.758;2023-11-21T09:17:20;11.32;;;5.43;;
11614;SDS011;5863;52.832;4.758;2023-11-21T09:19:46;8.02;;;5.35;;
11614;SDS011;5863;52.832;4.758;2023-11-21T09:22:16;11.57;;;5.47;;
11614;SDS011;5863;52.832;4.758;2023-11-21T09:24:43;11.18;;;6.07;;
11614;SDS011;5863;52.832;4.758;2023-11-21T09:27:09;12.48;;;5.55;;
11614;SDS011;5863;52.832;4.758;2023-11-21T09:29:36;11.68;;;5.57;;
11614;SDS011;5863;52.832;4.758;2023-11-21T09:32:04;14.35;;;5.68;;
11614;SDS011;5863;52.832;4.758;2023-11-21T09:34:33;10.30;;;5.90;;
11614;SDS011;5863;52.832;4.758;2023-11-21T09:37:03;11.30;;;5.90;;
11614;SDS011;5863;52.832;4.758;2023-11-21T09:39:31;13.15;;;5.78;;
11614;SDS011;5863;52.832;4.758;2023-11-21T09:41:59;10.25;;;5.55;;
11614;SDS011;5863;52.832;4.758;2023-11-21T09:44:32;10.45;;;5.53;;
11614;SDS011;5863;52.832;4.758;2023-11-21T09:47:02;14.23;;;6.18;;
11614;SDS011;5863;52.832;4.758;2023-11-21T09:49:29;9.57;;;5.63;;
11614;SDS011;5863;52.832;4.758;2023-11-21T09:52:01;19.05;;;6.03;;
11614;SDS011;5863;52.832;4.758;2023-11-21T09:54:29;7.38;;;5.22;;
11614;SDS011;5863;52.832;4.758;2023-11-21T09:56:57;10.68;;;6.50;;
11614;SDS011;5863;52.832;4.758;2023-11-21T09:59:25;9.88;;;6.15;;
11614;SDS011;5863;52.832;4.758;2023-11-21T10:01:56;9.30;;;5.40;;
11614;SDS011;5863;52.832;4.758;2023-11-21T10:04:24;10.38;;;4.88;;
11614;SDS011;5863;52.832;4.758;2023-11-21T10:06:51;9.80;;;5.13;;
11614;SDS011;5863;52.832;4.758;2023-11-21T10:09:21;9.70;;;5.05;;
11614;SDS011;5863;52.832;4.758;2023-11-21T10:11:52;11.02;;;5.03;;
11614;SDS011;5863;52.832;4.758;2023-11-21T10:14:19;8.57;;;5.28;;
11614;SDS011;5863;52.832;4.758;2023-11-21T10:16:50;14.30;;;5.85;;
11614;SDS011;5863;52.832;4.758;2023-11-21T10:19:18;7.13;;;4.90;;
11614;SDS011;5863;52.832;4.758;2023-11-21T10:21:46;10.48;;;4.68;;
11614;SDS011;5863;52.832;4.758;2023-11-21T10:24:12;11.20;;;4.97;;
11614;SDS011;5863;52.832;4.758;2023-11-21T10:26:41;8.57;;;4.93;;
11614;SDS011;5863;52.832;4.758;2023-11-21T10:29:08;6.68;;;4.13;;
11614;SDS011;5863;52.832;4.758;2023-11-21T10:31:37;6.72;;;4.50;;
11614;SDS011;5863;52.832;4.758;2023-11-21T10:34:12;9.68;;;4.70;;
11614;SDS011;5863;52.832;4.758;2023-11-21T10:36:39;5.30;;;4.20;;
11614;SDS011;5863;52.832;4.758;2023-11-21T10:39:06;12.45;;;3.90;;
11614;SDS011;5863;52.832;4.758;2023-11-21T10:41:32;8.98;;;4.63;;
11614;SDS011;5863;52.832;4.758;2023-11-21T10:44:01;7.07;;;3.60;;
11614;SDS011;5863;52.832;4.758;2023-11-21T10:46:29;4.97;;;3.40;;
11614;SDS011;5863;52.832;4.758;2023-11-21T10:48:56;6.82;;;3.50;;
11614;SDS011;5863;52.832;4.758;2023-11-21T10:51:23;6.15;;;3.30;;
11614;SDS011;5863;52.832;4.758;2023-11-21T10:53:51;8.90;;;3.22;;
11614;SDS011;5863;52.832;4.758;2023-11-21T10:56:18;10.88;;;3.42;;
11614;SDS011;5863;52.832;4.758;2023-11-21T10:58:46;9.45;;;3.55;;
11614;SDS011;5863;52.832;4.758;2023-11-21T11:01:16;5.40;;;3.17;;
11614;SDS011;5863;52.832;4.758;2023-11-21T11:03:46;8.20;;;3.58;;
11614;SDS011;5863;52.832;4.758;2023-11-21T11:06:14;8.90;;;3.63;;
11614;SDS011;5863;52.832;4.758;2023-11-21T11:08:41;8.27;;;3.20;;
11614;SDS011;5863;52.832;4.758;2023-11-21T11:11:09;7.05;;;3.60;;
11614;SDS011;5863;52.832;4.758;2023-11-21T11:13:37;5.35;;;3.30;;
11614;SDS011;5863;52.832;4.758;2023-11-21T11:16:04;10.40;;;3.50;;
11614;SDS011;5863;52.832;4.758;2023-11-21T11:18:36;6.47;;;3.78;;
11614;SDS011;5863;52.832;4.758;2023-11-21T11:21:07;8.48;;;4.30;;
11614;SDS011;5863;52.832;4.758;2023-11-21T11:23:49;8.95;;;4.40;;
11614;SDS011;5863;52.832;4.758;2023-11-21T11:26:31;7.10;;;4.45;;
11614;SDS011;5863;52.832;4.758;2023-11-21T11:29:08;6.32;;;4.28;;
11614;SDS011;5863;52.832;4.758;2023-11-21T11:31:45;6.43;;;4.35;;
11614;SDS011;5863;52.832;4.758;2023-11-21T11:34:23;8.48;;;4.50;;
11614;SDS011;5863;52.832;4.758;2023-11-21T11:36:56;5.80;;;3.80;;
11614;SDS011;5863;52.832;4.758;2023-11-21T11:39:28;6.63;;;4.20;;
11614;SDS011;5863;52.832;4.758;2023-11-21T11:41:56;7.68;;;4.30;;
11614;SDS011;5863;52.832;4.758;2023-11-21T11:44:46;6.80;;;4.40;;
11614;SDS011;5863;52.832;4.758;2023-11-21T11:47:16;7.30;;;4.22;;
11614;SDS011;5863;52.832;4.758;2023-11-21T11:50:03;6.22;;;4.25;;
11614;SDS011;5863;52.832;4.758;2023-11-21T11:52:33;8.13;;;4.47;;
11614;SDS011;5863;52.832;4.758;2023-11-21T11:55:01;9.32;;;4.90;;
11614;SDS011;5863;52.832;4.758;2023-11-21T11:57:29;7.53;;;4.85;;
11614;SDS011;5863;52.832;4.758;2023-11-21T12:00:13;6.95;;;4.38;;
11614;SDS011;5863;52.832;4.758;2023-11-21T12:02:44;8.75;;;4.68;;
11614;SDS011;5863;52.832;4.758;2023-11-21T12:05:13;7.57;;;4.65;;
11614;SDS011;5863;52.832;4.758;2023-11-21T12:07:43;7.07;;;4.93;;
11614;SDS011;5863;52.832;4.758;2023-11-21T12:10:12;7.75;;;4.97;;
11614;SDS011;5863;52.832;4.758;2023-11-21T12:12:44;8.82;;;5.28;;
11614;SDS011;5863;52.832;4.758;2023-11-21T12:15:12;8.07;;;4.97;;
11614;SDS011;5863;52.832;4.758;2023-11-21T12:17:39;7.25;;;4.53;;
11614;SDS011;5863;52.832;4.758;2023-11-21T12:20:08;7.30;;;4.63;;
11614;SDS011;5863;52.832;4.758;2023-11-21T12:22:42;7.30;;;4.57;;
11614;SDS011;5863;52.832;4.758;2023-11-21T12:25:12;10.70;;;4.78;;
11614;SDS011;5863;52.832;4.758;2023-11-21T12:27:41;4.72;;;4.05;;
11614;SDS011;5863;52.832;4.758;2023-11-21T14:26:05;4.10;;;3.70;;
11614;SDS011;5863;52.832;4.758;2023-11-21T14:34:28;5.03;;;4.40;;
11614;SDS011;5863;52.832;4.758;2023-11-21T14:40:17;5.63;;;4.47;;
11614;SDS011;5863;52.832;4.758;2023-11-21T14:42:48;6.85;;;4.70;;
11614;SDS011;5863;52.832;4.758;2023-11-21T14:45:18;5.55;;;4.53;;
11614;SDS011;5863;52.832;4.758;2023-11-21T14:47:45;5.88;;;4.57;;
11614;SDS011;5863;52.832;4.758;2023-11-21T14:50:19;5.45;;;4.20;;
11614;SDS011;5863;52.832;4.758;2023-11-21T14:53:09;6.60;;;4.40;;
11614;SDS011;5863;52.832;4.758;2023-11-21T14:55:37;5.72;;;4.55;;
11614;SDS011;5863;52.832;4.758;2023-11-21T14:58:19;5.68;;;3.80;;
11614;SDS011;5863;52.832;4.758;2023-11-21T15:00:51;4.88;;;3.95;;
11614;SDS011;5863;52.832;4.758;2023-11-21T15:03:22;5.78;;;3.65;;
11614;SDS011;5863;52.832;4.758;2023-11-21T15:06:08;7.00;;;4.22;;
11614;SDS011;5863;52.832;4.758;2023-11-21T15:08:44;4.57;;;3.88;;
11614;SDS011;5863;52.832;4.758;2023-11-21T15:11:18;4.40;;;3.53;;
11614;SDS011;5863;52.832;4.758;2023-11-21T15:13:48;4.45;;;3.80;;
11614;SDS011;5863;52.832;4.758;2023-11-21T15:16:17;5.28;;;3.75;;
11614;SDS011;5863;52.832;4.758;2023-11-21T15:18:43;5.07;;;4.00;;
11614;SDS011;5863;52.832;4.758;2023-11-21T15:21:10;5.60;;;4.10;;
11614;SDS011;5863;52.832;4.758;2023-11-21T15:23:37;5.30;;;4.07;;
11614;SDS011;5863;52.832;4.758;2023-11-21T15:26:06;5.35;;;4.22;;
11614;SDS011;5863;52.832;4.758;2023-11-21T15:28:33;4.68;;;3.88;;
11614;SDS011;5863;52.832;4.758;2023-11-21T15:31:02;5.90;;;4.32;;
11614;SDS011;5863;52.832;4.758;2023-11-21T15:33:29;5.15;;;3.92;;
11614;SDS011;5863;52.832;4.758;2023-11-21T15:35:55;8.57;;;4.00;;
11614;SDS011;5863;52.832;4.758;2023-11-21T15:38:23;5.40;;;3.83;;
11614;SDS011;5863;52.832;4.758;2023-11-21T15:40:50;4.82;;;3.53;;
11614;SDS011;5863;52.832;4.758;2023-11-21T15:43:16;6.65;;;3.83;;
11614;SDS011;5863;52.832;4.758;2023-11-21T15:45:43;3.85;;;3.40;;
11614;SDS011;5863;52.832;4.758;2023-11-21T15:48:11;3.97;;;3.40;;
11614;SDS011;5863;52.832;4.758;2023-11-21T15:50:39;7.60;;;3.72;;
11614;SDS011;5863;52.832;4.758;2023-11-21T15:53:06;9.30;;;4.20;;
11614;SDS011;5863;52.832;4.758;2023-11-21T15:55:32;5.15;;;4.05;;
11614;SDS011;5863;52.832;4.758;2023-11-21T15:58:01;5.97;;;3.75;;
11614;SDS011;5863;52.832;4.758;2023-11-21T16:00:29;6.43;;;4.13;;
11614;SDS011;5863;52.832;4.758;2023-11-21T16:02:56;6.07;;;3.65;;
11614;SDS011;5863;52.832;4.758;2023-11-21T16:05:24;2.60;;;2.40;;
11614;SDS011;5863;52.832;4.758;2023-11-21T16:07:51;2.67;;;2.47;;
11614;SDS011;5863;52.832;4.758;2023-11-21T16:10:18;2.47;;;2.05;;
11614;SDS011;5863;52.832;4.758;2023-11-21T16:12:45;1.83;;;1.70;;
11614;SDS011;5863;52.832;4.758;2023-11-21T16:15:11;2.72;;;1.90;;
11614;SDS011;5863;52.832;4.758;2023-11-21T16:17:38;2.92;;;1.70;;
11614;SDS011;5863;52.832;4.758;2023-11-21T16:20:07;1.95;;;1.83;;
11614;SDS011;5863;52.832;4.758;2023-11-21T16:22:37;2.40;;;1.67;;
11614;SDS011;5863;52.832;4.758;2023-11-21T16:25:04;2.75;;;2.17;;
11614;SDS011;5863;52.832;4.758;2023-11-21T16:27:35;4.95;;;2.30;;
11614;SDS011;5863;52.832;4.758;2023-11-21T16:30:03;2.92;;;2.50;;
11614;SDS011;5863;52.832;4.758;2023-11-21T16:32:30;3.90;;;2.83;;
11614;SDS011;5863;52.832;4.758;2023-11-21T16:34:57;4.05;;;2.60;;
11614;SDS011;5863;52.832;4.758;2023-11-21T16:37:25;3.80;;;2.90;;
11614;SDS011;5863;52.832;4.758;2023-11-21T16:39:52;2.85;;;2.40;;
11614;SDS011;5863;52.832;4.758;2023-11-21T16:42:18;4.43;;;2.45;;
11614;SDS011;5863;52.832;4.758;2023-11-21T16:44:45;3.03;;;2.50;;
11614;SDS011;5863;52.832;4.758;2023-11-21T16:47:14;4.95;;;4.05;;
11614;SDS011;5863;52.832;4.758;2023-11-21T16:49:41;4.53;;;3.83;;
11614;SDS011;5863;52.832;4.758;2023-11-21T16:52:10;8.55;;;4.47;;
11614;SDS011;5863;52.832;4.758;2023-11-21T16:54:37;5.32;;;4.50;;
11614;SDS011;5863;52.832;4.758;2023-11-21T16:57:05;7.22;;;5.10;;
11614;SDS011;5863;52.832;4.758;2023-11-21T16:59:32;11.48;;;8.32;;
11614;SDS011;5863;52.832;4.758;2023-11-21T17:01:58;9.05;;;6.82;;
11614;SDS011;5863;52.832;4.758;2023-11-21T17:04:25;8.95;;;5.97;;
11614;SDS011;5863;52.832;4.758;2023-11-21T17:06:52;11.13;;;6.10;;
11614;SDS011;5863;52.832;4.758;2023-11-21T17:09:18;9.15;;;7.82;;